createdAt,value
2023-02-15T00:01:35.902Z,45.50
2023-02-15T00:04:02.776Z,51.00
2023-02-15T00:06:29.244Z,41.90
2023-02-15T00:08:56.251Z,66.03
2023-02-15T00:11:41.502Z,42.00
2023-02-15T00:14:26.896Z,40.87
2023-02-15T00:16:54.199Z,45.53
2023-02-15T00:19:21.640Z,48.33
2023-02-15T00:21:49.582Z,48.67
2023-02-15T00:24:17.683Z,48.90
2023-02-15T00:26:44.960Z,43.90
2023-02-15T00:29:12.316Z,45.97
2023-02-15T00:31:39.172Z,50.83
2023-02-15T00:34:25.950Z,65.07
2023-02-15T00:36:53.114Z,95.77
2023-02-15T00:39:20.024Z,96.47
2023-02-15T00:41:47.120Z,104.73
2023-02-15T00:44:14.325Z,94.40
2023-02-15T00:46:41.032Z,83.77
2023-02-15T00:49:07.629Z,40.10
2023-02-15T00:51:34.230Z,38.80
2023-02-15T00:54:00.799Z,35.30
2023-02-15T00:56:29.377Z,33.00
2023-02-15T00:58:56.146Z,31.17
2023-02-15T01:01:24.494Z,29.37
2023-02-15T01:03:51.010Z,26.17
2023-02-15T01:06:17.908Z,29.53
2023-02-15T01:08:47.970Z,31.27
2023-02-15T01:11:22.995Z,32.17
2023-02-15T01:13:56.477Z,32.03
2023-02-15T01:16:24.405Z,32.10
2023-02-15T01:18:51.071Z,31.80
2023-02-15T01:21:20.105Z,32.13
2023-02-15T01:23:46.732Z,35.03
2023-02-15T01:26:14.133Z,34.07
2023-02-15T01:28:40.697Z,37.00
2023-02-15T01:31:12.236Z,38.30
2023-02-15T01:33:39.039Z,40.17
2023-02-15T01:36:06.000Z,42.50
2023-02-15T01:38:32.871Z,40.93
2023-02-15T01:41:17.823Z,41.63
2023-02-15T01:43:56.557Z,39.80
2023-02-15T01:46:44.332Z,41.20
2023-02-15T01:49:14.333Z,40.93
2023-02-15T01:51:42.422Z,44.20
2023-02-15T01:54:28.528Z,41.23
2023-02-15T01:56:59.712Z,39.63
2023-02-15T01:59:26.434Z,42.90
2023-02-15T02:01:55.805Z,40.13
2023-02-15T02:04:26.892Z,39.37
2023-02-15T02:06:54.243Z,38.80
2023-02-15T02:09:20.701Z,43.23
2023-02-15T02:11:48.389Z,40.80
2023-02-15T02:14:15.815Z,38.23
2023-02-15T02:17:29.306Z,40.63
2023-02-15T02:20:29.904Z,41.03
2023-02-15T02:23:08.133Z,39.10
2023-02-15T02:26:12.350Z,37.43
2023-02-15T02:29:08.404Z,38.10
2023-02-15T02:31:45.787Z,39.17
2023-02-15T02:34:27.065Z,42.97
2023-02-15T02:37:11.732Z,38.40
2023-02-15T02:39:42.911Z,42.40
2023-02-15T02:42:40.536Z,40.90
2023-02-15T02:45:15.759Z,37.73
2023-02-15T02:47:52.308Z,41.50
2023-02-15T02:50:23.784Z,37.17
2023-02-15T02:52:52.570Z,38.17
2023-02-15T02:55:36.854Z,37.97
2023-02-15T02:58:17.921Z,38.37
2023-02-15T03:00:49.974Z,35.27
2023-02-15T03:03:22.365Z,36.37
2023-02-15T03:05:51.192Z,35.37
2023-02-15T03:08:22.899Z,37.13
2023-02-15T03:10:53.212Z,38.80
2023-02-15T03:13:20.084Z,37.67
2023-02-15T03:16:05.740Z,35.80
2023-02-15T03:18:37.006Z,38.20
2023-02-15T03:21:04.479Z,37.17
2023-02-15T03:23:31.560Z,35.23
2023-02-15T03:26:00.680Z,34.57
2023-02-15T03:28:35.076Z,36.03
2023-02-15T03:31:04.071Z,35.07
2023-02-15T03:33:30.912Z,33.13
2023-02-15T03:36:39.246Z,34.70
2023-02-15T03:39:14.089Z,32.70
2023-02-15T03:41:47.190Z,36.13
2023-02-15T03:44:21.679Z,35.00
2023-02-15T03:46:54.810Z,37.00
2023-02-15T03:49:25.701Z,33.07
2023-02-15T03:51:54.193Z,34.57
2023-02-15T03:54:44.505Z,33.63
2023-02-15T03:57:31.326Z,35.60
2023-02-15T04:00:18.222Z,34.20
2023-02-15T04:02:56.897Z,31.70
2023-02-15T04:05:23.338Z,36.03
2023-02-15T04:07:49.822Z,30.53
2023-02-15T04:10:35.001Z,38.37
2023-02-15T04:13:01.467Z,37.37
2023-02-15T04:15:46.742Z,39.30
2023-02-15T04:18:13.240Z,35.27
2023-02-15T04:20:58.304Z,31.57
2023-02-15T04:23:43.375Z,36.63
2023-02-15T04:26:09.819Z,41.63
2023-02-15T04:28:36.696Z,35.67
2023-02-15T04:31:03.172Z,40.23
2023-02-15T04:33:29.744Z,37.43
2023-02-15T04:35:57.235Z,35.73
2023-02-15T04:38:23.791Z,38.70
2023-02-15T04:40:52.156Z,35.67
2023-02-15T04:43:19.760Z,33.87
2023-02-15T04:45:51.387Z,37.17
2023-02-15T04:48:18.897Z,36.33
2023-02-15T04:50:45.966Z,35.00
2023-02-15T04:53:12.628Z,32.50
2023-02-15T04:55:39.149Z,34.80
2023-02-15T04:58:05.623Z,37.60
2023-02-15T05:00:32.116Z,34.97
2023-02-15T05:02:58.605Z,34.47
2023-02-15T05:05:25.113Z,40.40
2023-02-15T05:07:51.559Z,35.53
2023-02-15T05:10:18.191Z,35.47
2023-02-15T05:12:44.700Z,35.87
2023-02-15T05:15:11.247Z,37.90
2023-02-15T05:17:37.743Z,35.93
2023-02-15T05:20:05.028Z,32.77
2023-02-15T05:22:31.478Z,37.87
2023-02-15T05:25:16.594Z,36.27
2023-02-15T05:28:02.842Z,36.07
2023-02-15T05:30:30.426Z,35.37
2023-02-15T05:32:56.956Z,36.37
2023-02-15T05:35:23.519Z,42.67
2023-02-15T05:37:50.004Z,30.53
2023-02-15T05:40:16.637Z,42.47
2023-02-15T05:42:43.132Z,30.13
2023-02-15T05:45:09.848Z,30.73
2023-02-15T05:47:36.342Z,32.17
2023-02-15T05:50:02.851Z,35.97
2023-02-15T05:52:29.272Z,33.30
2023-02-15T05:54:55.758Z,29.03
2023-02-15T05:57:22.222Z,33.00
2023-02-15T05:59:48.672Z,32.03
2023-02-15T06:02:25.305Z,34.60
2023-02-15T06:04:51.756Z,29.27
2023-02-15T06:07:18.246Z,32.07
2023-02-15T06:09:53.658Z,45.27
2023-02-15T06:12:20.135Z,44.33
2023-02-15T06:14:46.581Z,37.20
2023-02-15T06:17:13.211Z,31.10
2023-02-15T06:19:39.660Z,31.00
2023-02-15T06:22:07.344Z,34.07
2023-02-15T06:24:33.796Z,51.00
2023-02-15T06:27:00.249Z,51.33
2023-02-15T06:29:26.760Z,40.53
2023-02-15T06:31:53.304Z,39.07
2023-02-15T06:34:19.926Z,37.30
2023-02-15T06:36:46.420Z,37.63
2023-02-15T06:39:12.889Z,38.07
2023-02-15T06:41:40.010Z,40.57
2023-02-15T06:44:06.525Z,37.97
2023-02-15T06:46:33.146Z,80.07
2023-02-15T06:48:59.741Z,32.17
2023-02-15T06:51:26.264Z,40.63
2023-02-15T06:53:52.744Z,43.10
2023-02-15T06:56:19.233Z,42.10
2023-02-15T06:58:46.987Z,43.70
2023-02-15T07:01:13.688Z,41.20
2023-02-15T07:03:44.363Z,43.77
2023-02-15T07:06:11.714Z,43.87
2023-02-15T07:08:39.397Z,43.13
2023-02-15T07:11:25.535Z,42.10
2023-02-15T07:13:53.348Z,42.47
2023-02-15T07:16:20.655Z,40.97
2023-02-15T07:18:47.364Z,34.40
2023-02-15T07:21:13.840Z,36.90
2023-02-15T07:23:40.706Z,42.90
2023-02-15T07:26:08.379Z,46.73
2023-02-15T07:28:35.522Z,45.03
2023-02-15T07:31:03.606Z,49.03
2023-02-15T07:33:32.627Z,45.73
2023-02-15T07:36:01.363Z,42.53
2023-02-15T07:38:30.538Z,42.17
2023-02-15T07:41:01.131Z,39.97
2023-02-15T07:43:28.567Z,43.20
2023-02-15T07:45:55.115Z,45.70
2023-02-15T07:48:23.280Z,44.23
2023-02-15T07:50:51.297Z,39.90
2023-02-15T07:53:17.755Z,33.90
2023-02-15T07:55:44.259Z,38.80
2023-02-15T07:58:10.820Z,44.87
2023-02-15T08:00:55.869Z,47.37
2023-02-15T08:03:27.890Z,47.23
2023-02-15T08:05:59.614Z,43.73
2023-02-15T08:08:33.546Z,43.40
2023-02-15T08:11:25.849Z,46.53
2023-02-15T08:13:54.861Z,43.20
2023-02-15T08:16:22.921Z,47.83
2023-02-15T08:18:49.458Z,45.73
2023-02-15T08:21:15.932Z,45.33
2023-02-15T08:23:42.527Z,44.83
2023-02-15T08:26:09.037Z,50.83
2023-02-15T08:28:35.523Z,47.07
2023-02-15T08:31:09.653Z,42.93
2023-02-15T08:33:37.562Z,44.53
2023-02-15T08:36:05.930Z,46.00
2023-02-15T08:38:33.730Z,47.57
2023-02-15T08:41:24.804Z,48.97
2023-02-15T08:43:55.894Z,44.80
2023-02-15T08:46:23.916Z,52.93
2023-02-15T08:48:50.980Z,47.00
2023-02-15T08:51:23.294Z,44.13
2023-02-15T08:53:52.239Z,41.43
2023-02-15T08:56:22.696Z,45.93
2023-02-15T08:58:49.551Z,50.63
2023-02-15T09:01:24.307Z,44.13
2023-02-15T09:03:55.265Z,47.00
2023-02-15T09:06:22.895Z,52.40
2023-02-15T09:08:52.787Z,47.40
2023-02-15T09:11:24.888Z,47.17
2023-02-15T09:13:54.807Z,48.53
2023-02-15T09:16:22.577Z,53.33
2023-02-15T09:18:49.808Z,53.13
2023-02-15T09:21:18.746Z,52.30
2023-02-15T09:23:47.030Z,61.50
2023-02-15T09:26:16.548Z,63.57
2023-02-15T09:28:43.132Z,72.40
2023-02-15T09:31:16.128Z,54.43
2023-02-15T09:33:44.531Z,58.10
2023-02-15T09:36:20.236Z,47.23
2023-02-15T09:38:47.429Z,48.60
2023-02-15T09:41:35.747Z,49.90
2023-02-15T09:44:08.259Z,54.03
2023-02-15T09:46:48.935Z,50.27
2023-02-15T09:49:56.689Z,37.17
2023-02-15T09:52:49.188Z,69.00
2023-02-15T09:55:37.415Z,52.17
2023-02-15T09:58:33.345Z,42.73
2023-02-15T10:01:20.748Z,48.13
2023-02-15T10:04:13.633Z,50.87
2023-02-15T10:06:45.215Z,55.13
2023-02-15T10:09:50.196Z,53.97
2023-02-15T10:12:25.793Z,50.00
2023-02-15T10:15:10.135Z,52.93
2023-02-15T10:18:10.722Z,49.17
2023-02-15T10:20:58.791Z,51.97
2023-02-15T10:23:38.841Z,59.70
2023-02-15T10:26:20.014Z,61.33
2023-02-15T10:28:53.554Z,49.70
2023-02-15T10:32:04.819Z,49.63
2023-02-15T10:34:41.289Z,61.20
2023-02-15T10:37:35.614Z,54.67
2023-02-15T10:40:28.113Z,58.80
2023-02-15T10:43:07.860Z,58.30
2023-02-15T10:45:48.064Z,55.17
2023-02-15T10:48:23.167Z,77.93
2023-02-15T10:50:54.184Z,54.67
2023-02-15T10:53:51.666Z,52.77
2023-02-15T10:56:27.852Z,56.20
2023-02-15T10:59:31.892Z,47.93
2023-02-15T11:02:58.445Z,51.37
2023-02-15T11:05:39.770Z,59.37
2023-02-15T11:08:08.746Z,45.47
2023-02-15T11:10:39.568Z,53.17
2023-02-15T11:13:13.420Z,50.63
2023-02-15T11:15:53.517Z,55.47
2023-02-15T11:18:32.063Z,54.63
2023-02-15T11:21:04.731Z,54.00
2023-02-15T11:23:33.167Z,46.93
2023-02-15T11:26:05.801Z,61.57
2023-02-15T11:28:39.365Z,54.70
2023-02-15T11:31:26.940Z,51.00
2023-02-15T11:34:01.144Z,59.20
2023-02-15T11:36:33.249Z,50.03
2023-02-15T11:39:04.842Z,58.07
2023-02-15T11:41:36.169Z,55.80
2023-02-15T11:44:27.305Z,62.33
2023-02-15T11:46:53.882Z,51.57
2023-02-15T11:49:28.613Z,56.80
2023-02-15T11:51:56.840Z,53.53
2023-02-15T11:54:29.120Z,47.70
2023-02-15T11:57:19.060Z,48.47
2023-02-15T11:59:53.864Z,54.80
2023-02-15T12:02:23.211Z,56.10
2023-02-15T12:05:00.385Z,46.73
2023-02-15T12:07:34.604Z,54.93
2023-02-15T12:10:33.276Z,64.87
2023-02-15T12:13:17.346Z,59.67
2023-02-15T12:15:53.136Z,52.43
2023-02-15T12:18:45.927Z,54.27
2023-02-15T12:21:16.126Z,54.47
2023-02-15T12:23:48.914Z,57.87
2023-02-15T12:26:16.110Z,73.27
2023-02-15T12:28:45.343Z,62.07
2023-02-15T12:31:33.124Z,58.93
2023-02-15T12:34:03.423Z,61.80
2023-02-15T12:36:35.051Z,66.37
2023-02-15T12:39:13.670Z,56.50
2023-02-15T12:41:55.551Z,50.73
2023-02-15T12:44:31.018Z,50.40
2023-02-15T12:46:59.285Z,51.43
2023-02-15T12:49:27.147Z,54.60
2023-02-15T12:51:59.493Z,56.43
2023-02-15T12:54:41.103Z,48.10
2023-02-15T12:57:30.755Z,46.07
2023-02-15T13:00:01.706Z,51.03
2023-02-15T13:02:32.223Z,50.03
2023-02-15T13:05:06.734Z,52.90
2023-02-15T13:07:33.649Z,46.43
2023-02-15T13:10:00.374Z,52.10
2023-02-15T13:12:29.954Z,55.73
2023-02-15T13:14:57.130Z,59.40
2023-02-15T13:17:32.752Z,60.27
2023-02-15T13:20:05.010Z,52.33
2023-02-15T13:22:44.883Z,56.07
2023-02-15T13:25:20.073Z,51.83
2023-02-15T13:27:47.635Z,46.70
2023-02-15T13:30:27.055Z,50.83
2023-02-15T13:32:58.541Z,49.27
2023-02-15T13:35:26.312Z,48.83
2023-02-15T13:38:18.989Z,48.40
2023-02-15T13:40:55.393Z,49.73
2023-02-15T13:43:44.677Z,49.40
2023-02-15T13:46:44.002Z,47.60
2023-02-15T13:49:30.847Z,50.70
2023-02-15T13:52:19.278Z,49.93
2023-02-15T13:55:08.158Z,52.07
2023-02-15T13:57:50.073Z,49.73
2023-02-15T14:00:38.354Z,51.03
2023-02-15T14:03:38.986Z,54.20
2023-02-15T14:06:20.909Z,54.27
2023-02-15T14:08:59.333Z,53.17
2023-02-15T14:11:33.355Z,53.67
2023-02-15T14:14:10.244Z,54.90
2023-02-15T14:17:21.961Z,56.50
2023-02-15T14:20:18.591Z,56.37
2023-02-15T14:23:06.880Z,61.57
2023-02-15T14:25:42.201Z,59.90
2023-02-15T14:28:13.569Z,66.23
2023-02-15T14:30:43.537Z,59.93
2023-02-15T14:33:32.804Z,60.80
2023-02-15T14:36:01.980Z,53.17
2023-02-15T14:38:37.510Z,57.40
2023-02-15T14:41:18.343Z,55.30
2023-02-15T14:43:50.897Z,61.73
2023-02-15T14:46:25.178Z,55.23
2023-02-15T14:48:54.485Z,60.03
2023-02-15T14:51:44.062Z,64.20
2023-02-15T14:54:11.894Z,69.20
2023-02-15T14:56:39.987Z,77.93
2023-02-15T14:59:12.502Z,68.87
2023-02-15T15:01:39.624Z,69.03
2023-02-15T15:04:12.822Z,68.07
2023-02-15T15:06:42.439Z,72.30
2023-02-15T15:09:28.300Z,75.37
2023-02-15T15:12:02.470Z,78.03
2023-02-15T15:14:35.259Z,76.60
2023-02-15T15:17:04.957Z,74.30
2023-02-15T15:19:53.703Z,73.13
2023-02-15T15:22:24.745Z,77.37
2023-02-15T15:24:55.803Z,81.20
2023-02-15T15:27:40.675Z,75.37
2023-02-15T15:30:30.514Z,74.03
2023-02-15T15:33:07.990Z,81.53
2023-02-15T15:36:16.590Z,78.60
2023-02-15T15:39:14.029Z,89.57
2023-02-15T15:42:16.285Z,77.17
2023-02-15T15:45:04.941Z,83.20
2023-02-15T15:47:36.431Z,78.03
2023-02-15T15:50:13.308Z,83.53
2023-02-15T15:52:41.245Z,92.50
2023-02-15T15:55:18.061Z,86.73
2023-02-15T15:57:45.704Z,91.27
2023-02-15T16:00:30.546Z,85.37
2023-02-15T16:02:57.187Z,89.50
2023-02-15T16:05:24.088Z,87.47
2023-02-15T16:07:50.802Z,95.40
2023-02-15T16:10:23.740Z,94.03
2023-02-15T16:12:50.825Z,88.67
2023-02-15T16:15:22.597Z,89.97
2023-02-15T16:17:54.555Z,92.47
2023-02-15T16:20:24.507Z,83.93
2023-02-15T16:23:17.552Z,92.47
2023-02-15T16:25:58.772Z,86.47
2023-02-15T16:28:25.416Z,94.70
2023-02-15T16:31:13.108Z,97.87
2023-02-15T16:33:41.164Z,94.43
2023-02-15T16:36:21.618Z,97.13
2023-02-15T16:39:02.049Z,97.27
2023-02-15T16:41:29.858Z,101.50
2023-02-15T16:44:20.243Z,96.53
2023-02-15T16:46:56.016Z,94.73
2023-02-15T16:49:24.522Z,97.60
2023-02-15T16:52:00.649Z,96.57
2023-02-15T16:54:28.758Z,104.57
2023-02-15T16:56:55.486Z,105.27
2023-02-15T16:59:36.463Z,112.43
2023-02-15T17:02:40.091Z,106.97
2023-02-15T17:05:12.145Z,103.33
2023-02-15T17:07:51.200Z,102.70
2023-02-15T17:10:33.169Z,109.43
2023-02-15T17:13:06.108Z,104.20
2023-02-15T17:15:35.008Z,109.93
2023-02-15T17:18:06.324Z,113.07
2023-02-15T17:20:36.475Z,103.17
2023-02-15T17:23:05.147Z,110.23
2023-02-15T17:25:41.024Z,134.63
2023-02-15T17:28:18.184Z,120.40
2023-02-15T17:30:47.194Z,125.37
2023-02-15T17:33:40.626Z,138.63
2023-02-15T17:36:16.929Z,112.40
2023-02-15T17:38:58.784Z,122.07
2023-02-15T17:41:30.490Z,116.17
2023-02-15T17:43:57.245Z,119.87
2023-02-15T17:46:24.418Z,111.47
2023-02-15T17:48:55.735Z,137.57
2023-02-15T17:51:23.559Z,119.77
2023-02-15T17:54:08.859Z,117.93
2023-02-15T17:56:36.942Z,132.90
2023-02-15T17:59:07.636Z,175.80
2023-02-15T18:02:00.365Z,126.27
2023-02-15T18:04:45.400Z,108.47
2023-02-15T18:07:31.495Z,108.53
2023-02-15T18:10:16.870Z,117.70
2023-02-15T18:12:43.388Z,115.03
2023-02-15T18:15:12.323Z,103.30
2023-02-15T18:17:41.815Z,101.37
2023-02-15T18:20:31.393Z,111.83
2023-02-15T18:22:58.170Z,108.77
2023-02-15T18:25:25.648Z,108.97
2023-02-15T18:27:54.898Z,110.60
2023-02-15T18:30:23.793Z,110.47
2023-02-15T18:32:51.967Z,106.37
2023-02-15T18:35:20.283Z,104.03
2023-02-15T18:37:48.614Z,93.73
2023-02-15T18:40:20.449Z,104.50
2023-02-15T18:42:48.462Z,114.53
2023-02-15T18:45:22.323Z,108.90
2023-02-15T18:47:48.964Z,98.80
2023-02-15T18:50:17.540Z,99.07
2023-02-15T18:52:46.602Z,103.77
2023-02-15T18:55:22.072Z,104.63
2023-02-15T18:57:49.755Z,95.83
2023-02-15T19:00:22.772Z,106.53
2023-02-15T19:02:49.216Z,99.57
2023-02-15T19:05:17.885Z,93.47
2023-02-15T19:07:48.377Z,98.47
2023-02-15T19:10:22.977Z,104.17
2023-02-15T19:12:50.221Z,100.03
2023-02-15T19:15:18.559Z,80.77
2023-02-15T19:17:45.096Z,94.63
2023-02-15T19:20:38.373Z,93.37
2023-02-15T19:23:12.544Z,91.43
2023-02-15T19:25:39.617Z,110.53
2023-02-15T19:28:12.070Z,123.17
2023-02-15T19:30:38.634Z,89.83
2023-02-15T19:33:05.308Z,93.33
2023-02-15T19:35:35.235Z,93.80
2023-02-15T19:38:04.105Z,82.53
2023-02-15T19:40:32.458Z,86.67
2023-02-15T19:42:58.999Z,93.63
2023-02-15T19:45:27.909Z,82.70
2023-02-15T19:47:55.241Z,92.30
2023-02-15T19:50:26.441Z,90.20
2023-02-15T19:52:53.052Z,95.13
2023-02-15T19:55:29.668Z,88.93
2023-02-15T19:57:57.703Z,110.47
2023-02-15T20:00:26.452Z,122.43
2023-02-15T20:02:53.740Z,127.57
2023-02-15T20:05:20.780Z,93.83
2023-02-15T20:07:49.628Z,88.63
2023-02-15T20:10:21.359Z,73.30
2023-02-15T20:12:48.305Z,77.93
2023-02-15T20:15:24.010Z,78.93
2023-02-15T20:17:51.499Z,78.20
2023-02-15T20:20:18.818Z,80.70
2023-02-15T20:22:47.639Z,74.93
2023-02-15T20:25:24.191Z,72.87
2023-02-15T20:27:50.948Z,69.53
2023-02-15T20:30:31.816Z,62.37
2023-02-15T20:32:58.825Z,50.90
2023-02-15T20:35:31.128Z,64.00
2023-02-15T20:38:00.401Z,51.93
2023-02-15T20:40:32.093Z,55.17
2023-02-15T20:42:59.092Z,56.83
2023-02-15T20:45:28.302Z,60.53
2023-02-15T20:47:55.392Z,48.40
2023-02-15T20:50:24.427Z,45.57
2023-02-15T20:52:52.304Z,46.97
2023-02-15T20:55:24.379Z,47.23
2023-02-15T20:57:51.388Z,57.57
2023-02-15T21:00:26.506Z,52.63
2023-02-15T21:02:56.762Z,56.50
2023-02-15T21:05:25.903Z,54.40
2023-02-15T21:07:53.383Z,62.10
2023-02-15T21:10:22.526Z,60.20
2023-02-15T21:12:49.971Z,57.17
2023-02-15T21:15:35.641Z,57.20
2023-02-15T21:18:04.339Z,64.00
2023-02-15T21:20:32.329Z,59.10
2023-02-15T21:23:01.223Z,56.03
2023-02-15T21:25:30.912Z,51.03
2023-02-15T21:27:57.370Z,48.97
2023-02-15T21:30:24.639Z,43.77
2023-02-15T21:32:51.918Z,45.03
2023-02-15T21:35:19.418Z,45.70
2023-02-15T21:37:47.276Z,49.93
2023-02-15T21:40:13.696Z,42.50
2023-02-15T21:42:59.356Z,40.47
2023-02-15T21:45:44.394Z,52.90
2023-02-15T21:48:10.893Z,45.13
2023-02-15T21:50:56.583Z,45.03
2023-02-15T21:53:34.866Z,46.00
2023-02-15T21:56:04.046Z,43.23
2023-02-15T21:58:32.711Z,49.37
2023-02-15T22:01:00.736Z,47.17
2023-02-15T22:03:32.226Z,48.37
2023-02-15T22:05:58.763Z,47.30
2023-02-15T22:08:25.330Z,46.27
2023-02-15T22:10:53.945Z,48.20
2023-02-15T22:13:31.594Z,45.43
2023-02-15T22:15:58.794Z,46.97
2023-02-15T22:18:28.051Z,50.73
2023-02-15T22:20:55.698Z,45.93
2023-02-15T22:23:23.296Z,47.27
2023-02-15T22:25:55.424Z,47.50
2023-02-15T22:28:32.130Z,48.70
2023-02-15T22:30:58.647Z,48.20
2023-02-15T22:33:31.035Z,46.07
2023-02-15T22:35:57.946Z,44.33
2023-02-15T22:38:24.655Z,46.30
2023-02-15T22:40:56.068Z,45.57
2023-02-15T22:43:25.409Z,46.77
2023-02-15T22:45:52.262Z,49.90
2023-02-15T22:48:21.673Z,45.20
2023-02-15T22:50:48.762Z,46.53
2023-02-15T22:53:15.335Z,50.20
2023-02-15T22:55:42.103Z,46.57
2023-02-15T22:58:15.974Z,42.63
2023-02-15T23:00:42.584Z,48.07
2023-02-15T23:03:21.341Z,44.67
2023-02-15T23:05:48.025Z,49.33
2023-02-15T23:08:15.204Z,43.97
2023-02-15T23:10:43.560Z,44.97
2023-02-15T23:13:29.668Z,45.17
2023-02-15T23:16:02.713Z,40.73
2023-02-15T23:18:35.501Z,41.80
2023-02-15T23:21:21.988Z,50.27
2023-02-15T23:23:55.008Z,44.83
2023-02-15T23:26:25.729Z,47.40
2023-02-15T23:28:54.155Z,42.87
2023-02-15T23:31:36.645Z,45.17
2023-02-15T23:34:14.491Z,46.73
2023-02-15T23:36:41.025Z,43.83
2023-02-15T23:39:38.888Z,42.97
2023-02-15T23:42:10.056Z,44.00
2023-02-15T23:44:36.814Z,45.37
2023-02-15T23:47:03.502Z,45.10
2023-02-15T23:49:29.955Z,45.20
2023-02-15T23:51:57.501Z,45.13
2023-02-15T23:54:25.885Z,43.30
2023-02-15T23:56:59.362Z,46.87
2023-02-15T23:59:28.049Z,43.03
